createdAt,value
2019-01-29T00:02:10.492Z,0.90
2019-01-29T00:04:41.874Z,0.90
2019-01-29T00:07:13.230Z,0.90
2019-01-29T00:09:45.545Z,0.90
2019-01-29T00:12:18.090Z,0.90
2019-01-29T00:14:49.289Z,0.90
2019-01-29T00:17:20.339Z,0.90
2019-01-29T00:19:51.740Z,1.00
2019-01-29T00:22:23.181Z,1.00
2019-01-29T00:24:54.328Z,0.90
2019-01-29T00:27:26.858Z,1.00
2019-01-29T00:29:58.387Z,1.00
2019-01-29T00:32:29.011Z,1.10
2019-01-29T00:34:59.299Z,1.00
2019-01-29T00:37:31.719Z,1.10
2019-01-29T00:40:03.276Z,1.10
2019-01-29T00:42:35.222Z,1.10
2019-01-29T00:45:07.299Z,1.10
2019-01-29T00:47:37.720Z,1.20
2019-01-29T00:50:09.773Z,1.20
2019-01-29T00:52:42.150Z,1.20
2019-01-29T00:55:15.283Z,1.20
2019-01-29T00:57:44.711Z,1.20
2019-01-29T01:00:16.183Z,1.20
2019-01-29T01:02:48.916Z,1.20
2019-01-29T01:05:18.001Z,1.20
2019-01-29T01:07:51.600Z,1.20
2019-01-29T01:10:22.245Z,1.30
2019-01-29T01:12:54.365Z,1.30
2019-01-29T01:15:24.908Z,1.20
2019-01-29T01:17:56.594Z,1.20
2019-01-29T01:20:28.525Z,1.20
2019-01-29T01:23:00.205Z,1.20
2019-01-29T01:25:30.899Z,1.30
2019-01-29T01:28:02.892Z,1.20
2019-01-29T01:30:33.201Z,1.20
2019-01-29T01:33:05.790Z,1.20
2019-01-29T01:35:37.320Z,1.20
2019-01-29T01:38:10.724Z,1.30
2019-01-29T01:40:46.034Z,1.30
2019-01-29T01:43:18.418Z,1.40
2019-01-29T01:45:52.140Z,1.30
2019-01-29T01:48:22.749Z,1.40
2019-01-29T01:50:54.311Z,1.40
2019-01-29T01:53:24.828Z,1.40
2019-01-29T01:55:56.187Z,1.40
2019-01-29T01:58:27.633Z,1.30
2019-01-29T02:00:58.606Z,1.30
2019-01-29T02:03:31.046Z,1.40
2019-01-29T02:06:02.580Z,1.30
2019-01-29T02:08:33.088Z,1.30
2019-01-29T02:11:03.726Z,1.30
2019-01-29T02:13:34.633Z,1.30
2019-01-29T02:16:06.519Z,1.30
2019-01-29T02:18:37.035Z,1.30
2019-01-29T02:21:09.049Z,1.30
2019-01-29T02:23:41.557Z,1.30
2019-01-29T02:26:14.987Z,1.20
2019-01-29T02:28:47.432Z,1.20
2019-01-29T02:31:17.432Z,1.20
2019-01-29T02:33:47.597Z,1.30
2019-01-29T02:36:18.544Z,1.20
2019-01-29T02:38:49.376Z,1.20
2019-01-29T02:41:20.176Z,1.20
2019-01-29T02:43:52.636Z,1.20
2019-01-29T02:46:23.536Z,1.20
2019-01-29T02:48:59.050Z,1.20
2019-01-29T02:51:31.215Z,1.20
2019-01-29T02:54:02.740Z,1.20
2019-01-29T02:56:32.850Z,1.20
2019-01-29T02:59:01.898Z,1.20
2019-01-29T03:01:33.470Z,1.20
2019-01-29T03:04:06.924Z,1.20
2019-01-29T03:06:40.696Z,1.20
2019-01-29T03:09:13.129Z,1.20
2019-01-29T03:11:44.117Z,1.30
2019-01-29T03:14:16.635Z,1.20
2019-01-29T03:16:50.411Z,1.20
2019-01-29T03:19:23.819Z,1.20
2019-01-29T03:21:56.252Z,1.20
2019-01-29T03:24:27.270Z,1.20
2019-01-29T03:26:56.417Z,1.20
2019-01-29T03:29:26.890Z,1.20
2019-01-29T03:31:58.282Z,1.20
2019-01-29T03:34:28.448Z,1.20
2019-01-29T03:36:57.584Z,1.20
2019-01-29T03:39:28.324Z,1.10
2019-01-29T03:41:59.188Z,1.10
2019-01-29T03:44:33.770Z,1.20
2019-01-29T03:47:05.247Z,1.20
2019-01-29T03:49:38.181Z,1.20
2019-01-29T03:52:08.664Z,1.20
2019-01-29T03:54:42.113Z,1.20
2019-01-29T03:57:14.761Z,1.20
2019-01-29T03:59:47.240Z,1.20
2019-01-29T04:02:16.904Z,1.20
2019-01-29T04:04:48.469Z,1.10
2019-01-29T04:07:17.992Z,1.10
2019-01-29T04:09:48.177Z,1.10
2019-01-29T04:12:21.580Z,1.10
2019-01-29T04:14:52.941Z,1.10
2019-01-29T04:17:26.295Z,1.10
2019-01-29T04:19:56.777Z,1.10
2019-01-29T04:22:27.853Z,1.00
2019-01-29T04:25:01.515Z,1.00
2019-01-29T04:27:33.061Z,1.00
2019-01-29T04:30:05.747Z,1.00
2019-01-29T04:32:40.366Z,1.00
2019-01-29T04:35:11.231Z,1.00
2019-01-29T04:37:44.333Z,1.00
2019-01-29T04:40:16.949Z,0.90
2019-01-29T04:42:46.753Z,0.90
2019-01-29T04:45:17.833Z,0.90
2019-01-29T04:47:49.220Z,0.90
2019-01-29T04:50:21.439Z,0.90
2019-01-29T04:52:51.633Z,0.90
2019-01-29T04:55:24.384Z,0.90
2019-01-29T04:57:56.048Z,0.80
2019-01-29T05:00:28.620Z,0.90
2019-01-29T05:03:00.407Z,0.80
2019-01-29T05:05:31.368Z,0.80
2019-01-29T05:08:02.487Z,0.80
2019-01-29T05:10:32.861Z,0.80
2019-01-29T05:13:01.617Z,0.80
2019-01-29T05:15:31.830Z,0.80
2019-01-29T05:18:05.352Z,0.80
2019-01-29T05:20:35.910Z,0.80
2019-01-29T05:23:10.573Z,0.80
2019-01-29T05:25:42.294Z,0.80
2019-01-29T05:28:12.809Z,0.80
2019-01-29T05:30:42.730Z,0.80
2019-01-29T05:33:15.304Z,0.70
2019-01-29T05:35:46.324Z,0.70
2019-01-29T05:38:16.484Z,0.70
2019-01-29T05:40:46.644Z,0.70
2019-01-29T05:43:17.786Z,0.70
2019-01-29T05:45:48.185Z,0.70
2019-01-29T05:48:20.233Z,0.70
2019-01-29T05:50:51.206Z,0.70
2019-01-29T05:53:21.751Z,0.70
2019-01-29T05:55:55.376Z,0.70
2019-01-29T05:58:25.709Z,0.70
2019-01-29T06:00:59.434Z,0.70
2019-01-29T06:03:30.275Z,0.70
2019-01-29T06:06:00.623Z,0.70
2019-01-29T06:08:32.060Z,0.70
2019-01-29T06:11:04.955Z,0.70
2019-01-29T06:13:36.397Z,0.70
2019-01-29T06:16:05.588Z,0.70
2019-01-29T06:18:39.254Z,0.70
2019-01-29T06:21:11.176Z,0.70
2019-01-29T06:23:41.964Z,0.70
2019-01-29T06:26:16.560Z,0.70
2019-01-29T06:28:49.097Z,0.80
2019-01-29T06:31:19.657Z,0.70
2019-01-29T06:33:51.195Z,0.70
2019-01-29T06:36:22.457Z,0.70
2019-01-29T06:38:53.440Z,0.70
2019-01-29T06:41:25.968Z,0.70
2019-01-29T06:43:57.136Z,0.70
2019-01-29T06:46:26.537Z,0.70
2019-01-29T06:48:57.337Z,0.70
2019-01-29T06:51:28.215Z,0.70
2019-01-29T06:53:59.221Z,0.70
2019-01-29T06:56:28.902Z,0.70
2019-01-29T06:59:01.418Z,0.60
2019-01-29T07:01:33.998Z,0.70
2019-01-29T07:04:04.328Z,0.70
2019-01-29T07:06:35.833Z,0.60
2019-01-29T07:09:10.443Z,0.60
2019-01-29T07:11:41.314Z,0.60
2019-01-29T07:14:11.396Z,0.60
2019-01-29T07:16:52.984Z,0.60
2019-01-29T07:19:31.990Z,0.60
2019-01-29T07:22:06.378Z,0.60
2019-01-29T07:24:42.777Z,0.60
2019-01-29T07:27:11.946Z,0.60
2019-01-29T07:29:43.508Z,0.60
2019-01-29T07:32:16.964Z,0.60
2019-01-29T07:34:47.857Z,0.60
2019-01-29T07:37:22.014Z,0.60
2019-01-29T07:39:54.006Z,0.60
2019-01-29T07:42:27.113Z,0.60
2019-01-29T07:44:59.060Z,0.60
2019-01-29T07:47:29.235Z,0.60
2019-01-29T07:50:00.275Z,0.60
2019-01-29T07:52:30.706Z,0.60
2019-01-29T07:55:00.711Z,0.60
2019-01-29T07:57:30.874Z,0.60
2019-01-29T08:00:03.687Z,0.60
2019-01-29T08:02:34.721Z,0.60
2019-01-29T08:05:07.656Z,0.60
2019-01-29T08:07:37.693Z,0.60
2019-01-29T08:10:08.565Z,0.60
2019-01-29T08:12:38.757Z,0.60
2019-01-29T08:15:08.934Z,0.60
2019-01-29T08:17:37.960Z,0.60
2019-01-29T08:20:10.034Z,0.60
2019-01-29T08:22:41.589Z,0.60
2019-01-29T08:25:15.347Z,0.60
2019-01-29T08:27:46.764Z,0.60
2019-01-29T08:30:17.706Z,0.60
2019-01-29T08:32:49.225Z,0.60
2019-01-29T08:35:20.905Z,0.60
2019-01-29T08:37:52.689Z,0.60
2019-01-29T08:40:24.597Z,0.60
2019-01-29T08:42:56.182Z,0.60
2019-01-29T08:45:26.909Z,0.60
2019-01-29T08:47:55.985Z,0.60
2019-01-29T08:50:29.521Z,0.60
2019-01-29T08:53:01.417Z,0.50
2019-01-29T08:55:33.365Z,0.50
2019-01-29T08:58:07.002Z,0.40
2019-01-29T09:00:39.088Z,0.40
2019-01-29T09:03:10.088Z,0.30
2019-01-29T09:05:40.529Z,0.30
2019-01-29T09:08:13.146Z,0.40
2019-01-29T09:10:44.470Z,0.30
2019-01-29T09:13:17.961Z,0.40
2019-01-29T09:15:49.449Z,0.30
2019-01-29T09:18:20.905Z,0.30
2019-01-29T09:20:50.901Z,0.40
2019-01-29T09:23:21.861Z,0.40
2019-01-29T09:25:53.922Z,0.30
2019-01-29T09:28:25.013Z,0.40
2019-01-29T09:30:55.264Z,0.40
2019-01-29T09:33:27.410Z,0.30
2019-01-29T09:35:58.503Z,0.30
2019-01-29T09:38:31.964Z,0.20
2019-01-29T09:41:03.357Z,0.20
2019-01-29T09:43:36.725Z,0.20
2019-01-29T09:46:07.113Z,0.20
2019-01-29T09:48:38.541Z,0.10
2019-01-29T09:51:10.624Z,0.20
2019-01-29T09:53:42.929Z,0.10
2019-01-29T09:56:14.810Z,0.10
2019-01-29T09:58:46.162Z,0.10
2019-01-29T10:01:17.485Z,0.10
2019-01-29T10:03:47.933Z,0.10
2019-01-29T10:06:18.272Z,0.10
2019-01-29T10:08:49.732Z,0.10
2019-01-29T10:11:21.680Z,0.10
2019-01-29T10:13:51.864Z,0.10
2019-01-29T10:16:23.760Z,0.00
2019-01-29T10:18:55.872Z,-0.10
2019-01-29T10:21:26.313Z,0.00
2019-01-29T10:23:57.442Z,0.10
2019-01-29T10:26:30.154Z,0.00
2019-01-29T10:29:01.913Z,-0.10
2019-01-29T10:31:32.696Z,-0.10
2019-01-29T10:34:06.728Z,0.00
2019-01-29T10:36:41.099Z,0.00
2019-01-29T10:39:12.709Z,0.00
2019-01-29T10:41:44.752Z,-0.10
2019-01-29T10:44:16.165Z,0.00
2019-01-29T10:46:47.546Z,-0.20
2019-01-29T10:49:18.642Z,-0.30
2019-01-29T10:51:51.585Z,-0.30
2019-01-29T10:54:25.227Z,-0.30
2019-01-29T10:56:54.193Z,-0.20
2019-01-29T10:59:24.074Z,-0.10
2019-01-29T11:01:55.515Z,-0.10
2019-01-29T11:04:25.620Z,-0.10
2019-01-29T11:06:57.621Z,-0.20
2019-01-29T11:09:30.728Z,-0.20
2019-01-29T11:12:03.785Z,-0.20
2019-01-29T11:14:35.861Z,-0.20
2019-01-29T11:17:06.996Z,-0.20
2019-01-29T11:19:39.100Z,-0.20
2019-01-29T11:22:10.552Z,-0.20
2019-01-29T11:24:41.732Z,-0.20
2019-01-29T11:27:13.725Z,-0.20
2019-01-29T11:29:44.296Z,-0.20
2019-01-29T11:32:15.006Z,-0.20
2019-01-29T11:34:46.828Z,-0.20
2019-01-29T11:37:18.792Z,-0.30
2019-01-29T11:39:50.826Z,-0.30
2019-01-29T11:42:21.389Z,-0.20
2019-01-29T11:44:53.545Z,-0.20
2019-01-29T11:47:25.516Z,-0.20
2019-01-29T11:49:56.621Z,-0.20
2019-01-29T11:52:28.321Z,-0.20
2019-01-29T11:55:01.009Z,-0.20
2019-01-29T11:57:33.403Z,-0.30
2019-01-29T12:00:04.285Z,-0.10
2019-01-29T12:02:34.739Z,-0.10
2019-01-29T12:05:07.162Z,-0.20
2019-01-29T12:07:38.709Z,-0.20
2019-01-29T12:10:10.442Z,-0.10
2019-01-29T12:13:02.478Z,-0.10
2019-01-29T12:15:34.703Z,-0.10
2019-01-29T12:18:08.729Z,-0.20
2019-01-29T12:20:39.789Z,-0.10
2019-01-29T12:23:09.192Z,-0.10
2019-01-29T12:25:39.796Z,-0.10
2019-01-29T12:28:11.437Z,-0.20
2019-01-29T12:30:42.776Z,-0.10
2019-01-29T12:33:12.601Z,-0.10
2019-01-29T12:35:44.072Z,-0.10
2019-01-29T12:38:17.416Z,-0.10
2019-01-29T12:40:48.474Z,-0.20
2019-01-29T12:43:21.449Z,-0.20
2019-01-29T12:45:53.109Z,-0.10
2019-01-29T12:48:25.587Z,-0.20
2019-01-29T12:50:58.466Z,-0.10
2019-01-29T12:53:36.733Z,-0.10
2019-01-29T12:56:08.236Z,-0.10
2019-01-29T12:58:48.894Z,-0.20
2019-01-29T13:01:20.333Z,-0.30
2019-01-29T13:03:52.732Z,-0.20
2019-01-29T13:06:24.616Z,-0.20
2019-01-29T13:08:55.245Z,-0.20
2019-01-29T13:11:25.288Z,-0.20
2019-01-29T13:13:55.387Z,-0.20
2019-01-29T13:16:26.355Z,-0.20
2019-01-29T13:18:57.300Z,-0.20
2019-01-29T13:21:29.728Z,-0.20
2019-01-29T13:24:03.324Z,-0.30
2019-01-29T13:26:37.963Z,-0.20
2019-01-29T13:29:12.705Z,-0.30
2019-01-29T13:31:44.375Z,-0.30
2019-01-29T13:34:17.485Z,-0.30
2019-01-29T13:36:48.902Z,-0.20
2019-01-29T13:39:19.836Z,-0.20
2019-01-29T13:41:51.389Z,-0.30
2019-01-29T13:44:23.112Z,-0.30
2019-01-29T13:46:55.192Z,-0.20
2019-01-29T13:49:26.305Z,-0.30
2019-01-29T13:51:57.328Z,-0.30
2019-01-29T13:54:26.481Z,-0.30
2019-01-29T13:56:57.358Z,-0.30
2019-01-29T13:59:27.648Z,-0.40
2019-01-29T14:01:57.826Z,-0.30
2019-01-29T14:04:27.514Z,-0.30
2019-01-29T14:06:56.297Z,-0.30
2019-01-29T14:09:27.242Z,-0.40
2019-01-29T14:11:57.702Z,-0.40
2019-01-29T14:14:30.608Z,-0.50
2019-01-29T14:17:03.502Z,-0.40
2019-01-29T14:19:34.543Z,-0.40
2019-01-29T14:22:05.697Z,-0.40
2019-01-29T14:24:36.084Z,-0.40
2019-01-29T14:27:09.172Z,-0.40
2019-01-29T14:29:40.162Z,-0.40
2019-01-29T14:32:12.156Z,-0.40
2019-01-29T14:34:43.079Z,-0.40
2019-01-29T14:37:14.365Z,-0.40
2019-01-29T14:40:06.317Z,-0.40
2019-01-29T14:42:37.793Z,-0.40
2019-01-29T14:45:11.531Z,-0.40
2019-01-29T14:47:48.969Z,-0.40
2019-01-29T14:50:21.040Z,-0.40
2019-01-29T14:52:52.187Z,-0.40
2019-01-29T14:55:23.989Z,-0.40
2019-01-29T14:57:59.044Z,-0.40
2019-01-29T15:00:32.137Z,-0.40
2019-01-29T15:03:05.577Z,-0.40
2019-01-29T15:05:38.121Z,-0.40
2019-01-29T15:08:12.746Z,-0.40
2019-01-29T15:10:44.805Z,-0.40
2019-01-29T15:13:16.252Z,-0.40
2019-01-29T15:15:59.434Z,-0.50
2019-01-29T15:18:32.093Z,-0.50
2019-01-29T15:21:05.408Z,-0.50
2019-01-29T15:23:36.856Z,-0.60
2019-01-29T15:26:08.569Z,-0.40
2019-01-29T15:28:40.522Z,-0.50
2019-01-29T15:31:15.945Z,-0.50
2019-01-29T15:33:49.848Z,-0.50
2019-01-29T15:36:20.908Z,-0.50
2019-01-29T15:38:54.596Z,-0.60
2019-01-29T15:41:26.504Z,-0.40
2019-01-29T15:43:57.874Z,-0.50
2019-01-29T15:46:31.529Z,-0.50
2019-01-29T15:49:02.606Z,-0.60
2019-01-29T15:51:34.009Z,-0.60
2019-01-29T15:54:04.433Z,-0.60
2019-01-29T15:56:35.390Z,-0.50
2019-01-29T15:59:07.553Z,-0.60
2019-01-29T16:01:39.988Z,-0.60
2019-01-29T16:04:11.498Z,-0.70
2019-01-29T16:06:42.078Z,-0.70
2019-01-29T16:09:12.368Z,-0.60
2019-01-29T16:11:45.144Z,-0.60
2019-01-29T16:14:15.909Z,-0.60
2019-01-29T16:16:48.148Z,-0.70
2019-01-29T16:19:20.605Z,-0.70
2019-01-29T16:21:52.553Z,-0.60
2019-01-29T16:24:26.508Z,-0.60
2019-01-29T16:27:06.448Z,-0.50
2019-01-29T16:29:31.212Z,-0.60
2019-01-29T16:32:03.344Z,-0.60
2019-01-29T16:34:34.335Z,-0.60
2019-01-29T16:37:06.865Z,-0.60
2019-01-29T16:39:39.008Z,-0.60
2019-01-29T16:42:11.731Z,-0.70
2019-01-29T16:44:40.712Z,-0.70
2019-01-29T16:47:10.053Z,-0.80
2019-01-29T16:49:42.160Z,-0.70
2019-01-29T16:52:16.657Z,-0.60
2019-01-29T16:54:47.221Z,-0.70
2019-01-29T16:57:18.828Z,-0.70
2019-01-29T16:59:48.553Z,-0.70
2019-01-29T17:02:19.512Z,-0.70
2019-01-29T17:04:51.893Z,-0.70
2019-01-29T17:07:24.986Z,-0.70
2019-01-29T17:09:56.948Z,-0.70
2019-01-29T17:12:29.014Z,-0.70
2019-01-29T17:15:04.411Z,-0.70
2019-01-29T17:17:36.072Z,-0.70
2019-01-29T17:20:06.997Z,-0.70
2019-01-29T17:22:39.403Z,-0.80
2019-01-29T17:25:10.697Z,-0.70
2019-01-29T17:27:45.164Z,-0.70
2019-01-29T17:30:20.046Z,-0.80
2019-01-29T17:32:52.224Z,-0.80
2019-01-29T17:35:22.933Z,-0.80
2019-01-29T17:37:54.350Z,-0.80
2019-01-29T17:40:25.992Z,-0.90
2019-01-29T17:42:57.721Z,-0.80
2019-01-29T17:45:39.827Z,-0.80
2019-01-29T17:48:13.234Z,-0.80
2019-01-29T17:50:45.417Z,-0.90
2019-01-29T17:53:17.289Z,-0.90
2019-01-29T17:55:48.358Z,-1.00
2019-01-29T17:58:20.048Z,-1.00
2019-01-29T18:00:58.353Z,-1.00
2019-01-29T18:03:29.342Z,-0.90
2019-01-29T18:05:58.977Z,-1.00
2019-01-29T18:08:31.128Z,-0.90
2019-01-29T18:11:03.540Z,-1.00
2019-01-29T18:13:35.991Z,-1.00
2019-01-29T18:16:05.880Z,-1.00
2019-01-29T18:18:37.970Z,-1.00
2019-01-29T18:21:08.645Z,-1.00
2019-01-29T18:23:37.507Z,-1.00
2019-01-29T18:26:08.320Z,-1.00
2019-01-29T18:28:40.930Z,-1.10
2019-01-29T18:31:11.889Z,-1.20
2019-01-29T18:33:43.933Z,-1.20
2019-01-29T18:36:14.338Z,-1.20
2019-01-29T18:38:46.244Z,-1.30
2019-01-29T18:41:17.195Z,-1.30
2019-01-29T18:43:47.860Z,-1.40
2019-01-29T18:46:18.843Z,-1.30
2019-01-29T18:48:49.036Z,-1.30
2019-01-29T18:51:20.470Z,-1.30
2019-01-29T18:53:54.400Z,-1.40
2019-01-29T18:56:27.400Z,-1.30
2019-01-29T18:58:59.824Z,-1.30
2019-01-29T19:01:32.969Z,-1.40
2019-01-29T19:04:03.977Z,-1.40
2019-01-29T19:06:35.470Z,-1.30
2019-01-29T19:09:08.237Z,-1.30
2019-01-29T19:11:40.265Z,-1.30
2019-01-29T19:14:12.169Z,-1.30
2019-01-29T19:16:44.930Z,-1.30
2019-01-29T19:19:15.801Z,-1.40
2019-01-29T19:21:47.104Z,-1.30
2019-01-29T19:24:17.897Z,-1.40
2019-01-29T19:26:49.196Z,-1.40
2019-01-29T19:29:20.640Z,-1.40
2019-01-29T19:31:51.565Z,-1.50
2019-01-29T19:34:22.600Z,-1.40
2019-01-29T19:36:55.168Z,-1.40
2019-01-29T19:39:28.506Z,-1.60
2019-01-29T19:41:59.888Z,-1.50
2019-01-29T19:44:33.353Z,-1.50
2019-01-29T19:47:06.928Z,-1.50
2019-01-29T19:49:37.949Z,-1.60
2019-01-29T19:52:07.083Z,-1.50
2019-01-29T19:54:37.122Z,-1.50
2019-01-29T19:57:07.893Z,-1.60
2019-01-29T19:59:38.293Z,-1.50
2019-01-29T20:02:10.912Z,-1.50
2019-01-29T20:04:41.913Z,-1.50
2019-01-29T20:07:14.036Z,-1.60
2019-01-29T20:09:46.360Z,-1.60
2019-01-29T20:12:16.040Z,-1.70
2019-01-29T20:14:47.177Z,-1.60
2019-01-29T20:17:19.111Z,-1.70
2019-01-29T20:19:50.697Z,-1.50
2019-01-29T20:22:24.872Z,-1.60
2019-01-29T20:24:56.398Z,-1.60
2019-01-29T20:27:29.545Z,-1.60
2019-01-29T20:30:01.577Z,-1.70
2019-01-29T20:32:34.010Z,-1.70
2019-01-29T20:35:05.462Z,-1.70
2019-01-29T20:37:37.723Z,-1.70
2019-01-29T20:40:08.640Z,-1.60
2019-01-29T20:42:41.360Z,-1.70
2019-01-29T20:45:14.686Z,-1.70
2019-01-29T20:47:45.722Z,-1.70
2019-01-29T20:50:17.549Z,-1.70
2019-01-29T20:52:47.700Z,-1.70
2019-01-29T20:55:19.786Z,-1.70
2019-01-29T20:57:50.721Z,-1.80
2019-01-29T21:00:23.945Z,-1.70
2019-01-29T21:02:57.762Z,-1.70
2019-01-29T21:05:31.307Z,-1.70
2019-01-29T21:08:03.312Z,-1.70
2019-01-29T21:10:33.792Z,-1.70
2019-01-29T21:13:03.785Z,-1.80
2019-01-29T21:15:38.543Z,-1.70
2019-01-29T21:18:07.240Z,-1.70
2019-01-29T21:20:39.033Z,-1.60
2019-01-29T21:23:12.940Z,-1.80
2019-01-29T21:25:44.490Z,-1.80
2019-01-29T21:28:15.368Z,-1.70
2019-01-29T21:30:47.518Z,-1.80
2019-01-29T21:33:19.338Z,-1.90
2019-01-29T21:35:51.900Z,-1.80
2019-01-29T21:38:23.319Z,-1.90
2019-01-29T21:40:55.365Z,-1.90
2019-01-29T21:43:25.206Z,-2.00
2019-01-29T21:45:56.621Z,-1.90
2019-01-29T21:48:27.959Z,-1.90
2019-01-29T21:51:00.011Z,-1.90
2019-01-29T21:53:30.738Z,-1.90
2019-01-29T21:56:22.988Z,-1.90
2019-01-29T21:58:55.065Z,-1.90
2019-01-29T22:01:26.571Z,-1.90
2019-01-29T22:03:58.705Z,-1.80
2019-01-29T22:06:29.425Z,-1.80
2019-01-29T22:09:00.343Z,-1.90
2019-01-29T22:11:30.784Z,-2.10
2019-01-29T22:14:01.964Z,-2.00
2019-01-29T22:16:32.396Z,-2.00
2019-01-29T22:19:04.393Z,-2.00
2019-01-29T22:21:36.949Z,-2.00
2019-01-29T22:24:08.490Z,-2.10
2019-01-29T22:26:41.670Z,-2.10
2019-01-29T22:29:22.942Z,-2.10
2019-01-29T22:31:46.920Z,-2.10
2019-01-29T22:34:18.385Z,-2.00
2019-01-29T22:36:50.313Z,-2.00
2019-01-29T22:39:22.120Z,-2.00
2019-01-29T22:41:55.274Z,-2.10
2019-01-29T22:44:26.804Z,-2.10
2019-01-29T22:46:59.116Z,-2.10
2019-01-29T22:49:31.073Z,-2.00
2019-01-29T22:52:02.508Z,-2.00
2019-01-29T22:54:34.676Z,-2.20
2019-01-29T22:57:05.621Z,-2.10
2019-01-29T22:59:39.573Z,-2.10
2019-01-29T23:02:12.177Z,-2.10
2019-01-29T23:04:47.066Z,-2.20
2019-01-29T23:07:21.673Z,-2.20
2019-01-29T23:09:52.535Z,-2.20
2019-01-29T23:12:24.105Z,-2.20
2019-01-29T23:14:56.636Z,-2.20
2019-01-29T23:17:29.547Z,-2.10
2019-01-29T23:20:01.192Z,-2.10
2019-01-29T23:22:33.416Z,-2.10
2019-01-29T23:25:06.513Z,-2.20
2019-01-29T23:27:36.911Z,-2.30
2019-01-29T23:30:10.392Z,-2.30
2019-01-29T23:32:41.269Z,-2.30
2019-01-29T23:35:11.352Z,-2.40
2019-01-29T23:37:44.684Z,-2.30
2019-01-29T23:40:15.732Z,-2.30
2019-01-29T23:42:46.621Z,-2.30
2019-01-29T23:45:18.477Z,-2.20
2019-01-29T23:48:01.846Z,-2.40
2019-01-29T23:50:34.586Z,-2.40
2019-01-29T23:53:05.702Z,-2.30
2019-01-29T23:55:39.241Z,-2.40
2019-01-29T23:58:12.745Z,-2.40
